createdAt,value
2022-12-03T00:00:25.417Z,11.97
2022-12-03T00:01:47.453Z,11.63
2022-12-03T00:03:09.775Z,11.03
2022-12-03T00:04:31.932Z,11.10
2022-12-03T00:05:53.955Z,11.50
2022-12-03T00:07:15.996Z,11.27
2022-12-03T00:08:38.037Z,10.43
2022-12-03T00:10:00.091Z,10.90
2022-12-03T00:11:22.108Z,10.60
2022-12-03T00:12:44.128Z,11.03
2022-12-03T00:14:06.169Z,12.03
2022-12-03T00:15:28.265Z,11.27
2022-12-03T00:16:50.354Z,10.70
2022-12-03T00:18:12.386Z,10.00
2022-12-03T00:19:34.421Z,11.33
2022-12-03T00:20:56.428Z,11.00
2022-12-03T00:22:18.468Z,11.60
2022-12-03T00:23:42.421Z,10.77
2022-12-03T00:25:05.077Z,11.50
2022-12-03T00:26:27.100Z,11.73
2022-12-03T00:27:49.161Z,11.40
2022-12-03T00:29:11.292Z,12.63
2022-12-03T00:30:33.410Z,12.17
2022-12-03T00:31:55.438Z,11.60
2022-12-03T00:33:17.436Z,11.50
2022-12-03T00:34:39.579Z,12.23
2022-12-03T00:36:01.702Z,12.07
2022-12-03T00:37:23.811Z,11.53
2022-12-03T00:38:46.032Z,11.53
2022-12-03T00:40:08.782Z,13.90
2022-12-03T00:41:30.857Z,12.70
2022-12-03T00:42:52.898Z,11.17
2022-12-03T00:44:14.975Z,11.23
2022-12-03T00:45:37.020Z,11.27
2022-12-03T00:46:59.133Z,10.43
2022-12-03T00:48:21.200Z,11.97
2022-12-03T00:49:43.212Z,11.73
2022-12-03T00:51:05.382Z,10.73
2022-12-03T00:52:27.409Z,11.87
2022-12-03T00:53:49.411Z,11.87
2022-12-03T00:55:11.922Z,12.17
2022-12-03T00:56:33.972Z,12.37
2022-12-03T00:57:56.087Z,11.17
2022-12-03T00:59:18.218Z,10.73
2022-12-03T01:00:40.259Z,11.63
2022-12-03T01:02:02.440Z,11.10
2022-12-03T01:03:24.624Z,12.67
2022-12-03T01:04:46.756Z,10.97
2022-12-03T01:06:08.966Z,12.17
2022-12-03T01:07:31.151Z,12.13
2022-12-03T01:08:53.232Z,12.97
2022-12-03T01:10:15.489Z,12.47
2022-12-03T01:11:37.533Z,12.00
2022-12-03T01:12:59.642Z,11.90
2022-12-03T01:14:22.033Z,12.90
2022-12-03T01:15:44.300Z,12.03
2022-12-03T01:17:06.880Z,11.67
2022-12-03T01:18:28.938Z,12.30
2022-12-03T01:19:52.545Z,13.03
2022-12-03T01:21:14.571Z,12.33
2022-12-03T01:22:36.700Z,12.83
2022-12-03T01:23:59.168Z,11.47
2022-12-03T01:25:21.309Z,12.73
2022-12-03T01:26:43.433Z,11.60
2022-12-03T01:28:05.510Z,11.40
2022-12-03T01:29:27.538Z,12.20
2022-12-03T01:31:07.939Z,12.03
2022-12-03T01:32:30.004Z,10.77
2022-12-03T01:33:52.033Z,10.83
2022-12-03T01:35:14.123Z,12.03
2022-12-03T01:36:36.168Z,12.00
2022-12-03T01:37:58.308Z,11.53
2022-12-03T01:39:20.393Z,12.60
2022-12-03T01:40:42.465Z,11.83
2022-12-03T01:42:05.161Z,12.13
2022-12-03T01:43:27.231Z,12.17
2022-12-03T01:44:52.713Z,12.10
2022-12-03T01:46:21.186Z,12.60
2022-12-03T01:47:43.326Z,12.00
2022-12-03T01:49:06.045Z,11.97
2022-12-03T01:50:32.199Z,12.43
2022-12-03T01:51:55.445Z,11.70
2022-12-03T01:53:19.071Z,11.10
2022-12-03T01:54:52.441Z,11.50
2022-12-03T01:56:19.046Z,11.90
2022-12-03T01:57:53.908Z,12.03
2022-12-03T01:59:18.843Z,11.77
2022-12-03T02:00:40.990Z,11.07
2022-12-03T02:02:17.296Z,11.57
2022-12-03T02:03:39.579Z,11.00
2022-12-03T02:05:05.971Z,11.63
2022-12-03T02:06:29.984Z,11.80
2022-12-03T02:07:52.195Z,11.83
2022-12-03T02:09:14.272Z,11.73
2022-12-03T02:10:37.584Z,11.70
2022-12-03T02:11:59.633Z,11.50
2022-12-03T02:13:21.839Z,11.00
2022-12-03T02:14:44.114Z,11.70
2022-12-03T02:16:06.494Z,12.73
2022-12-03T02:17:29.326Z,12.13
2022-12-03T02:18:51.352Z,12.77
2022-12-03T02:20:14.399Z,11.77
2022-12-03T02:21:52.541Z,11.90
2022-12-03T02:23:36.043Z,12.50
2022-12-03T02:25:05.853Z,10.20
2022-12-03T02:26:28.169Z,10.97
2022-12-03T02:27:51.069Z,12.60
2022-12-03T02:29:13.309Z,11.73
2022-12-03T02:30:36.257Z,10.93
2022-12-03T02:31:58.363Z,10.97
2022-12-03T02:33:20.534Z,12.20
2022-12-03T02:34:45.218Z,12.23
2022-12-03T02:36:07.577Z,12.40
2022-12-03T02:37:33.758Z,12.23
2022-12-03T02:38:55.771Z,11.00
2022-12-03T02:40:24.140Z,9.93
2022-12-03T02:42:04.844Z,11.53
2022-12-03T02:43:27.219Z,11.97
2022-12-03T02:44:49.351Z,13.07
2022-12-03T02:46:11.416Z,14.43
2022-12-03T02:47:36.374Z,12.60
2022-12-03T02:48:59.499Z,11.47
2022-12-03T02:50:25.639Z,11.40
2022-12-03T02:51:47.846Z,12.10
2022-12-03T02:53:14.415Z,13.00
2022-12-03T02:54:36.535Z,11.80
2022-12-03T02:56:00.565Z,13.13
2022-12-03T02:57:22.620Z,11.77
2022-12-03T02:58:46.942Z,11.17
2022-12-03T03:00:10.116Z,12.50
2022-12-03T03:01:32.671Z,11.53
2022-12-03T03:02:55.127Z,12.13
2022-12-03T03:04:17.370Z,12.37
2022-12-03T03:05:41.365Z,11.50
2022-12-03T03:07:03.415Z,12.90
2022-12-03T03:08:26.665Z,12.03
2022-12-03T03:09:49.203Z,11.53
2022-12-03T03:11:11.604Z,11.53
2022-12-03T03:12:39.079Z,12.30
2022-12-03T03:14:03.031Z,12.10
2022-12-03T03:15:25.550Z,12.00
2022-12-03T03:16:55.780Z,11.93
2022-12-03T03:18:18.596Z,10.93
2022-12-03T03:19:40.790Z,11.67
2022-12-03T03:21:03.685Z,11.40
2022-12-03T03:22:41.079Z,11.33
2022-12-03T03:24:03.219Z,11.60
2022-12-03T03:25:25.285Z,12.37
2022-12-03T03:26:47.727Z,13.23
2022-12-03T03:28:10.512Z,12.70
2022-12-03T03:29:33.920Z,11.60
2022-12-03T03:30:57.557Z,11.10
2022-12-03T03:32:20.357Z,11.97
2022-12-03T03:33:44.642Z,12.30
2022-12-03T03:35:08.202Z,14.00
2022-12-03T03:36:31.177Z,11.10
2022-12-03T03:37:54.301Z,11.70
2022-12-03T03:39:16.394Z,13.70
2022-12-03T03:40:39.290Z,11.93
2022-12-03T03:42:01.472Z,12.13
2022-12-03T03:43:24.951Z,12.00
2022-12-03T03:44:48.073Z,12.53
2022-12-03T03:46:11.294Z,12.40
2022-12-03T03:47:33.449Z,12.97
2022-12-03T03:48:55.741Z,11.63
2022-12-03T03:50:18.083Z,12.13
2022-12-03T03:51:40.285Z,12.60
2022-12-03T03:53:04.231Z,12.47
2022-12-03T03:54:26.566Z,11.97
2022-12-03T03:55:49.259Z,11.07
2022-12-03T03:57:11.446Z,12.37
2022-12-03T03:58:33.642Z,13.30
2022-12-03T03:59:55.771Z,11.70
2022-12-03T04:01:18.811Z,12.17
2022-12-03T04:02:41.609Z,12.40
2022-12-03T04:04:04.323Z,12.40
2022-12-03T04:05:27.155Z,13.23
2022-12-03T04:06:49.929Z,12.00
2022-12-03T04:08:12.296Z,11.60
2022-12-03T04:09:34.372Z,12.37
2022-12-03T04:11:15.127Z,12.07
2022-12-03T04:12:55.264Z,11.50
2022-12-03T04:14:17.320Z,11.47
2022-12-03T04:15:39.518Z,12.30
2022-12-03T04:17:01.594Z,12.80
2022-12-03T04:18:42.240Z,13.20
2022-12-03T04:20:04.951Z,13.00
2022-12-03T04:21:45.592Z,13.53
2022-12-03T04:23:07.957Z,12.70
2022-12-03T04:24:30.040Z,12.87
2022-12-03T04:26:11.094Z,12.70
2022-12-03T04:27:51.529Z,12.60
2022-12-03T04:29:13.570Z,12.57
2022-12-03T04:30:35.625Z,12.03
2022-12-03T04:32:17.956Z,12.70
2022-12-03T04:33:58.701Z,12.93
2022-12-03T04:35:45.088Z,13.37
2022-12-03T04:37:07.255Z,13.20
2022-12-03T04:38:29.314Z,13.10
2022-12-03T04:39:51.607Z,13.13
2022-12-03T04:41:13.664Z,12.17
2022-12-03T04:42:35.706Z,12.43
2022-12-03T04:44:16.289Z,12.60
2022-12-03T04:45:38.349Z,13.27
2022-12-03T04:47:11.389Z,12.13
2022-12-03T04:48:33.461Z,12.30
2022-12-03T04:49:55.516Z,11.87
2022-12-03T04:51:17.567Z,12.73
2022-12-03T04:52:39.629Z,12.70
2022-12-03T04:54:02.004Z,11.60
2022-12-03T04:55:24.028Z,12.13
2022-12-03T04:56:46.202Z,12.23
2022-12-03T04:58:08.468Z,11.20
2022-12-03T04:59:51.615Z,12.60
2022-12-03T05:01:13.972Z,12.00
2022-12-03T05:02:36.156Z,13.30
2022-12-03T05:03:58.239Z,12.00
2022-12-03T05:05:20.318Z,12.87
2022-12-03T05:06:42.992Z,13.67
2022-12-03T05:08:05.385Z,12.33
2022-12-03T05:09:27.524Z,12.67
2022-12-03T05:10:49.591Z,12.27
2022-12-03T05:12:11.586Z,12.80
2022-12-03T05:13:33.705Z,12.70
2022-12-03T05:14:56.132Z,13.33
2022-12-03T05:16:18.784Z,12.20
2022-12-03T05:17:40.921Z,12.93
2022-12-03T05:19:04.227Z,12.10
2022-12-03T05:20:41.310Z,13.87
2022-12-03T05:22:03.338Z,12.70
2022-12-03T05:23:25.832Z,13.13
2022-12-03T05:24:47.861Z,13.30
2022-12-03T05:26:10.350Z,11.77
2022-12-03T05:27:32.478Z,12.57
2022-12-03T05:28:54.522Z,12.40
2022-12-03T05:30:16.818Z,12.07
2022-12-03T05:31:38.847Z,12.00
2022-12-03T05:33:01.516Z,11.00
2022-12-03T05:34:23.558Z,13.07
2022-12-03T05:35:46.129Z,12.10
2022-12-03T05:37:08.184Z,11.77
2022-12-03T05:38:30.359Z,13.00
2022-12-03T05:39:52.403Z,13.53
2022-12-03T05:41:33.180Z,12.20
2022-12-03T05:42:56.663Z,11.87
2022-12-03T05:44:20.697Z,11.53
2022-12-03T05:45:44.498Z,11.70
2022-12-03T05:47:06.568Z,12.77
2022-12-03T05:48:28.638Z,11.40
2022-12-03T05:49:50.673Z,13.07
2022-12-03T05:51:12.880Z,12.43
2022-12-03T05:52:34.901Z,12.40
2022-12-03T05:53:56.955Z,11.97
2022-12-03T05:55:19.229Z,13.00
2022-12-03T05:56:41.258Z,11.63
2022-12-03T05:58:03.638Z,11.47
2022-12-03T05:59:25.692Z,12.30
2022-12-03T06:00:47.748Z,12.47
2022-12-03T06:02:09.915Z,11.87
2022-12-03T06:03:32.203Z,12.10
2022-12-03T06:04:54.611Z,11.80
2022-12-03T06:06:16.904Z,12.30
2022-12-03T06:07:39.230Z,12.23
2022-12-03T06:09:01.663Z,11.70
2022-12-03T06:10:25.075Z,12.17
2022-12-03T06:11:47.239Z,12.50
2022-12-03T06:13:09.286Z,11.70
2022-12-03T06:14:32.136Z,11.30
2022-12-03T06:15:54.234Z,10.93
2022-12-03T06:17:16.378Z,11.33
2022-12-03T06:18:38.450Z,11.20
2022-12-03T06:20:00.658Z,11.60
2022-12-03T06:21:22.720Z,12.57
2022-12-03T06:22:45.161Z,12.50
2022-12-03T06:24:07.268Z,12.40
2022-12-03T06:25:29.307Z,12.13
2022-12-03T06:26:51.392Z,11.93
2022-12-03T06:28:13.396Z,10.37
2022-12-03T06:29:35.486Z,10.53
2022-12-03T06:30:57.589Z,11.93
2022-12-03T06:32:19.687Z,12.63
2022-12-03T06:33:41.732Z,12.67
2022-12-03T06:35:04.013Z,11.67
2022-12-03T06:36:27.632Z,11.70
2022-12-03T06:37:49.696Z,11.93
2022-12-03T06:39:11.951Z,11.13
2022-12-03T06:40:34.050Z,11.90
2022-12-03T06:41:56.116Z,11.10
2022-12-03T06:43:18.203Z,12.10
2022-12-03T06:44:40.306Z,10.07
2022-12-03T06:46:02.439Z,10.60
2022-12-03T06:47:24.553Z,13.57
2022-12-03T06:48:46.683Z,12.40
2022-12-03T06:50:09.049Z,12.73
2022-12-03T06:51:31.455Z,11.07
2022-12-03T06:52:53.517Z,12.13
2022-12-03T06:54:15.569Z,13.20
2022-12-03T06:55:37.619Z,12.03
2022-12-03T06:57:00.225Z,11.70
2022-12-03T06:58:22.387Z,11.57
2022-12-03T06:59:44.455Z,12.30
2022-12-03T07:01:06.497Z,11.43
2022-12-03T07:02:28.639Z,11.07
2022-12-03T07:03:50.715Z,11.50
2022-12-03T07:05:12.760Z,12.10
2022-12-03T07:06:34.807Z,11.53
2022-12-03T07:07:57.016Z,11.80
2022-12-03T07:09:19.107Z,12.63
2022-12-03T07:10:41.153Z,11.93
2022-12-03T07:12:03.258Z,13.73
2022-12-03T07:13:25.317Z,14.50
2022-12-03T07:14:47.443Z,13.00
2022-12-03T07:16:09.574Z,12.23
2022-12-03T07:17:31.661Z,11.93
2022-12-03T07:18:53.879Z,17.27
2022-12-03T07:20:16.318Z,14.17
2022-12-03T07:21:38.422Z,13.37
2022-12-03T07:23:00.480Z,13.07
2022-12-03T07:24:22.517Z,10.93
2022-12-03T07:25:44.545Z,12.47
2022-12-03T07:27:06.577Z,11.40
2022-12-03T07:28:28.611Z,12.87
2022-12-03T07:29:50.683Z,12.73
2022-12-03T07:31:12.883Z,13.53
2022-12-03T07:32:34.929Z,14.07
2022-12-03T07:33:56.976Z,12.40
2022-12-03T07:35:19.102Z,19.20
2022-12-03T07:36:41.227Z,12.83
2022-12-03T07:38:03.269Z,11.77
2022-12-03T07:39:25.357Z,11.07
2022-12-03T07:40:47.410Z,11.40
2022-12-03T07:42:09.634Z,11.97
2022-12-03T07:43:31.760Z,11.93
2022-12-03T07:44:54.142Z,13.37
2022-12-03T07:46:16.476Z,12.20
2022-12-03T07:47:38.546Z,13.47
2022-12-03T07:49:00.577Z,11.93
2022-12-03T07:50:22.668Z,12.00
2022-12-03T07:51:53.522Z,12.83
2022-12-03T07:53:15.658Z,12.10
2022-12-03T07:54:37.695Z,11.90
2022-12-03T07:55:59.764Z,13.07
2022-12-03T07:57:21.784Z,11.40
2022-12-03T07:58:44.040Z,12.33
2022-12-03T08:00:07.255Z,12.13
2022-12-03T08:01:29.336Z,12.00
2022-12-03T08:02:51.430Z,11.77
2022-12-03T08:04:14.716Z,13.93
2022-12-03T08:05:36.778Z,13.00
2022-12-03T08:06:59.269Z,11.90
2022-12-03T08:08:21.371Z,12.17
2022-12-03T08:09:43.563Z,12.57
2022-12-03T08:11:06.021Z,11.33
2022-12-03T08:12:40.348Z,13.57
2022-12-03T08:14:11.451Z,12.63
2022-12-03T08:15:39.125Z,11.30
2022-12-03T08:17:01.751Z,11.40
2022-12-03T08:18:23.830Z,14.00
2022-12-03T08:19:47.159Z,11.17
2022-12-03T08:21:12.912Z,11.30
2022-12-03T08:22:34.970Z,12.37
2022-12-03T08:23:57.928Z,12.03
2022-12-03T08:25:25.910Z,11.77
2022-12-03T08:26:49.516Z,13.77
2022-12-03T08:28:13.573Z,12.30
2022-12-03T08:29:35.742Z,12.23
2022-12-03T08:31:04.892Z,12.33
2022-12-03T08:32:27.165Z,11.47
2022-12-03T08:33:51.499Z,10.47
2022-12-03T08:35:27.131Z,12.60
2022-12-03T08:36:59.523Z,11.70
2022-12-03T08:38:23.979Z,10.67
2022-12-03T08:39:53.116Z,12.20
2022-12-03T08:41:16.194Z,11.40
2022-12-03T08:42:44.119Z,12.10
2022-12-03T08:44:37.235Z,14.87
2022-12-03T08:45:59.311Z,13.40
2022-12-03T08:47:25.364Z,11.67
2022-12-03T08:48:49.382Z,13.00
2022-12-03T08:50:23.683Z,13.30
2022-12-03T08:51:45.735Z,11.60
2022-12-03T08:53:13.901Z,12.27
2022-12-03T08:54:36.072Z,11.20
2022-12-03T08:56:04.225Z,10.97
2022-12-03T08:57:32.913Z,11.03
2022-12-03T08:58:59.088Z,11.80
2022-12-03T09:00:23.984Z,10.93
2022-12-03T09:01:47.106Z,10.73
2022-12-03T09:03:16.469Z,10.33
2022-12-03T09:04:39.203Z,9.90
2022-12-03T09:06:01.397Z,11.20
2022-12-03T09:07:23.479Z,10.80
2022-12-03T09:08:45.523Z,9.60
2022-12-03T09:10:08.293Z,10.20
2022-12-03T09:11:30.424Z,10.33
2022-12-03T09:12:52.493Z,10.20
2022-12-03T09:14:18.569Z,9.67
2022-12-03T09:15:41.109Z,9.70
2022-12-03T09:17:03.444Z,10.50
2022-12-03T09:18:25.505Z,10.53
2022-12-03T09:19:47.526Z,8.63
2022-12-03T09:21:09.575Z,8.80
2022-12-03T09:22:31.853Z,9.20
2022-12-03T09:23:53.867Z,10.10
2022-12-03T09:25:16.455Z,10.37
2022-12-03T09:26:38.794Z,9.70
2022-12-03T09:28:00.896Z,9.80
2022-12-03T09:29:22.945Z,10.17
2022-12-03T09:30:45.006Z,8.93
2022-12-03T09:32:07.084Z,10.43
2022-12-03T09:33:31.075Z,10.17
2022-12-03T09:34:53.748Z,8.90
2022-12-03T09:36:15.940Z,10.27
2022-12-03T09:37:38.035Z,9.80
2022-12-03T09:39:00.085Z,9.43
2022-12-03T09:40:22.922Z,10.93
2022-12-03T09:41:45.107Z,9.73
2022-12-03T09:43:07.324Z,10.87
2022-12-03T09:44:32.344Z,11.40
2022-12-03T09:45:54.658Z,10.77
2022-12-03T09:47:16.841Z,9.80
2022-12-03T09:48:39.895Z,9.83
2022-12-03T09:50:02.047Z,9.30
2022-12-03T09:51:30.104Z,9.80
2022-12-03T09:52:54.961Z,9.50
2022-12-03T09:54:23.946Z,8.53
2022-12-03T09:55:47.919Z,9.90
2022-12-03T09:57:13.347Z,8.70
2022-12-03T09:58:35.499Z,8.77
2022-12-03T09:59:57.993Z,9.00
2022-12-03T10:01:20.372Z,8.90
2022-12-03T10:02:42.951Z,9.10
2022-12-03T10:04:05.103Z,8.77
2022-12-03T10:05:29.119Z,9.80
2022-12-03T10:06:51.604Z,9.80
2022-12-03T10:08:20.684Z,9.07
2022-12-03T10:09:42.822Z,10.23
2022-12-03T10:11:04.949Z,10.23
2022-12-03T10:12:27.141Z,12.07
2022-12-03T10:13:49.594Z,8.90
2022-12-03T10:15:14.302Z,10.03
2022-12-03T10:16:37.711Z,9.73
2022-12-03T10:18:07.032Z,8.97
2022-12-03T10:19:32.669Z,10.23
2022-12-03T10:20:55.669Z,10.77
2022-12-03T10:22:17.745Z,9.73
2022-12-03T10:23:41.104Z,10.63
2022-12-03T10:25:13.606Z,10.87
2022-12-03T10:26:40.627Z,9.87
2022-12-03T10:28:03.974Z,9.40
2022-12-03T10:29:34.963Z,9.70
2022-12-03T10:30:57.360Z,10.40
2022-12-03T10:32:24.194Z,10.20
2022-12-03T10:33:47.279Z,9.67
2022-12-03T10:35:25.197Z,10.17
2022-12-03T10:36:47.260Z,11.57
2022-12-03T10:38:18.469Z,10.73
2022-12-03T10:40:00.046Z,9.67
2022-12-03T10:41:27.614Z,10.10
2022-12-03T10:42:49.698Z,10.67
2022-12-03T10:44:16.007Z,11.37
2022-12-03T10:45:38.046Z,11.40
2022-12-03T10:47:11.463Z,10.73
2022-12-03T10:48:33.668Z,9.87
2022-12-03T10:50:03.876Z,11.10
2022-12-03T10:51:25.923Z,10.20
2022-12-03T10:52:48.131Z,12.07
2022-12-03T10:54:22.603Z,10.90
2022-12-03T10:55:45.713Z,9.50
2022-12-03T10:57:09.769Z,9.87
2022-12-03T10:58:39.714Z,10.33
2022-12-03T11:00:01.959Z,10.90
2022-12-03T11:01:26.393Z,12.50
2022-12-03T11:02:56.096Z,10.37
2022-12-03T11:04:20.613Z,12.57
2022-12-03T11:05:42.660Z,11.50
2022-12-03T11:07:15.828Z,11.03
2022-12-03T11:08:37.991Z,11.37
2022-12-03T11:10:01.729Z,11.37
2022-12-03T11:11:30.017Z,11.53
2022-12-03T11:13:26.053Z,11.70
2022-12-03T11:14:51.935Z,9.80
2022-12-03T11:16:35.091Z,11.17
2022-12-03T11:17:57.267Z,12.57
2022-12-03T11:19:43.747Z,11.47
2022-12-03T11:21:07.097Z,10.87
2022-12-03T11:22:45.893Z,12.27
2022-12-03T11:24:20.384Z,11.83
2022-12-03T11:25:49.555Z,12.07
2022-12-03T11:27:11.704Z,11.30
2022-12-03T11:28:36.051Z,11.23
2022-12-03T11:30:00.604Z,10.40
2022-12-03T11:31:47.653Z,12.30
2022-12-03T11:33:21.637Z,11.53
2022-12-03T11:34:44.114Z,11.80
2022-12-03T11:36:06.183Z,12.20
2022-12-03T11:37:28.565Z,11.90
2022-12-03T11:38:54.033Z,12.90
2022-12-03T11:40:19.010Z,11.40
2022-12-03T11:42:26.824Z,12.10
2022-12-03T11:43:57.455Z,11.10
2022-12-03T11:45:33.116Z,12.50
2022-12-03T11:46:56.865Z,12.33
2022-12-03T11:48:19.176Z,13.23
2022-12-03T11:49:46.808Z,13.60
2022-12-03T11:51:15.110Z,13.00
2022-12-03T11:52:42.903Z,13.40
2022-12-03T11:54:05.137Z,13.27
2022-12-03T11:55:34.539Z,11.67
2022-12-03T11:56:56.696Z,11.77
2022-12-03T11:58:19.106Z,12.90
2022-12-03T12:00:22.939Z,13.73
2022-12-03T12:01:45.880Z,12.77
2022-12-03T12:03:22.758Z,13.73
2022-12-03T12:04:47.706Z,12.67
2022-12-03T12:06:12.169Z,13.90
2022-12-03T12:07:37.461Z,14.40
2022-12-03T12:08:59.954Z,13.10
2022-12-03T12:10:48.386Z,12.83
2022-12-03T12:12:37.879Z,13.40
2022-12-03T12:14:01.189Z,13.37
2022-12-03T12:15:44.316Z,13.77
2022-12-03T12:17:30.014Z,14.50
2022-12-03T12:18:55.178Z,13.13
2022-12-03T12:20:27.413Z,13.00
2022-12-03T12:21:50.039Z,13.33
2022-12-03T12:23:27.822Z,12.23
2022-12-03T12:24:52.577Z,14.47
2022-12-03T12:26:14.586Z,12.97
2022-12-03T12:27:45.386Z,12.73
2022-12-03T12:29:07.415Z,12.07
2022-12-03T12:30:29.480Z,15.63
2022-12-03T12:31:57.450Z,14.17
2022-12-03T12:33:23.571Z,13.73
2022-12-03T12:34:48.257Z,13.70
2022-12-03T12:36:10.546Z,15.00
2022-12-03T12:37:47.190Z,13.87
2022-12-03T12:39:14.980Z,13.33
2022-12-03T12:40:42.601Z,13.77
2022-12-03T12:42:32.669Z,13.17
2022-12-03T12:43:54.737Z,13.10
2022-12-03T12:45:18.045Z,13.50
2022-12-03T12:46:49.911Z,13.63
2022-12-03T12:48:15.129Z,15.00
2022-12-03T12:49:37.182Z,13.43
2022-12-03T12:50:59.515Z,14.73
2022-12-03T12:52:21.620Z,16.27
2022-12-03T12:53:43.714Z,15.37
2022-12-03T12:55:09.642Z,15.30
2022-12-03T12:56:32.570Z,16.13
2022-12-03T12:58:00.293Z,16.70
2022-12-03T12:59:24.384Z,15.13
2022-12-03T13:00:51.167Z,15.23
2022-12-03T13:02:33.013Z,14.87
2022-12-03T13:03:56.091Z,14.57
2022-12-03T13:05:18.197Z,14.27
2022-12-03T13:06:40.634Z,15.30
2022-12-03T13:08:07.240Z,16.07
2022-12-03T13:09:33.157Z,15.97
2022-12-03T13:11:00.501Z,17.07
2022-12-03T13:12:24.223Z,17.27
2022-12-03T13:13:46.310Z,17.33
2022-12-03T13:16:00.743Z,16.00
2022-12-03T13:17:24.548Z,15.33
2022-12-03T13:18:49.324Z,15.80
2022-12-03T13:20:20.691Z,15.83
2022-12-03T13:21:46.003Z,17.17
2022-12-03T13:23:31.415Z,16.07
2022-12-03T13:24:57.220Z,16.13
2022-12-03T13:26:36.592Z,15.73
2022-12-03T13:28:00.938Z,15.53
2022-12-03T13:29:23.247Z,17.30
2022-12-03T13:30:45.587Z,16.30
2022-12-03T13:32:19.852Z,16.17
2022-12-03T13:33:42.936Z,15.80
2022-12-03T13:35:24.025Z,16.00
2022-12-03T13:36:53.322Z,15.93
2022-12-03T13:38:20.370Z,15.50
2022-12-03T13:39:47.612Z,14.97
2022-12-03T13:41:47.972Z,15.97
2022-12-03T13:43:16.497Z,13.70
2022-12-03T13:44:45.882Z,15.87
2022-12-03T13:46:09.864Z,16.23
2022-12-03T13:47:32.384Z,17.20
2022-12-03T13:48:58.708Z,17.40
2022-12-03T13:50:25.438Z,17.37
2022-12-03T13:51:48.227Z,13.93
2022-12-03T13:53:33.183Z,13.90
2022-12-03T13:54:56.801Z,14.00
2022-12-03T13:56:29.280Z,13.80
2022-12-03T13:57:51.346Z,12.30
2022-12-03T13:59:14.154Z,11.30
2022-12-03T14:00:36.200Z,11.60
2022-12-03T14:01:58.318Z,12.43
2022-12-03T14:03:20.928Z,12.83
2022-12-03T14:04:43.036Z,12.73
2022-12-03T14:06:05.268Z,11.97
2022-12-03T14:07:27.461Z,11.10
2022-12-03T14:08:49.708Z,12.03
2022-12-03T14:10:12.870Z,11.20
2022-12-03T14:11:54.423Z,11.33
2022-12-03T14:13:16.453Z,12.07
2022-12-03T14:14:38.578Z,12.20
2022-12-03T14:16:00.712Z,12.13
2022-12-03T14:17:22.785Z,13.20
2022-12-03T14:18:44.865Z,12.47
2022-12-03T14:20:08.131Z,11.80
2022-12-03T14:21:30.266Z,11.30
2022-12-03T14:22:59.010Z,10.97
2022-12-03T14:24:21.698Z,10.90
2022-12-03T14:25:46.580Z,12.40
2022-12-03T14:27:08.627Z,11.10
2022-12-03T14:28:30.690Z,14.07
2022-12-03T14:29:53.120Z,11.27
2022-12-03T14:31:15.452Z,11.00
2022-12-03T14:32:37.535Z,11.27
2022-12-03T14:33:59.660Z,13.00
2022-12-03T14:35:21.762Z,12.20
2022-12-03T14:36:44.315Z,11.90
2022-12-03T14:38:06.357Z,11.83
2022-12-03T14:39:28.449Z,12.17
2022-12-03T14:40:50.541Z,12.40
2022-12-03T14:42:16.897Z,14.60
2022-12-03T14:43:39.201Z,12.17
2022-12-03T14:45:04.185Z,12.40
2022-12-03T14:46:26.368Z,12.00
2022-12-03T14:47:48.534Z,14.57
2022-12-03T14:49:12.774Z,12.97
2022-12-03T14:50:34.926Z,12.67
2022-12-03T14:51:57.292Z,12.63
2022-12-03T14:53:24.108Z,12.20
2022-12-03T14:54:49.474Z,13.97
2022-12-03T14:56:11.853Z,14.73
2022-12-03T14:57:34.179Z,13.70
2022-12-03T14:58:56.377Z,13.90
2022-12-03T15:00:19.368Z,14.60
2022-12-03T15:01:41.702Z,14.40
2022-12-03T15:03:03.874Z,15.40
2022-12-03T15:04:26.549Z,13.90
2022-12-03T15:05:49.060Z,13.80
2022-12-03T15:07:11.197Z,15.80
2022-12-03T15:08:33.489Z,14.93
2022-12-03T15:09:56.606Z,14.87
2022-12-03T15:11:19.058Z,14.47
2022-12-03T15:12:41.105Z,15.67
2022-12-03T15:14:03.291Z,15.03
2022-12-03T15:15:25.555Z,14.97
2022-12-03T15:16:47.892Z,17.27
2022-12-03T15:18:10.136Z,15.67
2022-12-03T15:19:32.244Z,16.00
2022-12-03T15:20:54.280Z,15.40
2022-12-03T15:22:16.345Z,15.37
2022-12-03T15:23:38.578Z,14.57
2022-12-03T15:25:02.436Z,16.13
2022-12-03T15:26:24.530Z,16.10
2022-12-03T15:27:46.646Z,14.20
2022-12-03T15:29:08.849Z,14.83
2022-12-03T15:30:32.053Z,15.83
2022-12-03T15:31:54.319Z,17.10
2022-12-03T15:33:16.950Z,15.10
2022-12-03T15:34:38.987Z,15.23
2022-12-03T15:36:01.109Z,17.13
2022-12-03T15:37:27.492Z,16.43
2022-12-03T15:38:49.615Z,15.20
2022-12-03T15:40:12.523Z,15.73
2022-12-03T15:41:34.570Z,14.90
2022-12-03T15:42:56.618Z,16.27
2022-12-03T15:44:18.745Z,14.50
2022-12-03T15:45:40.873Z,15.27
2022-12-03T15:47:03.240Z,15.77
2022-12-03T15:48:25.365Z,14.03
2022-12-03T15:49:48.835Z,14.97
2022-12-03T15:51:10.923Z,16.40
2022-12-03T15:52:33.009Z,15.40
2022-12-03T15:53:55.203Z,16.07
2022-12-03T15:55:17.430Z,14.77
2022-12-03T15:56:39.511Z,15.07
2022-12-03T15:58:01.773Z,13.87
2022-12-03T15:59:24.006Z,14.90
2022-12-03T16:00:46.086Z,12.80
2022-12-03T16:02:08.306Z,14.27
2022-12-03T16:03:30.467Z,14.73
2022-12-03T16:04:52.619Z,14.37
2022-12-03T16:06:14.798Z,14.00
2022-12-03T16:07:37.289Z,14.60
2022-12-03T16:08:59.453Z,15.47
2022-12-03T16:10:21.671Z,14.53
2022-12-03T16:11:43.785Z,13.90
2022-12-03T16:13:06.065Z,13.60
2022-12-03T16:14:28.191Z,14.33
2022-12-03T16:15:50.328Z,12.80
2022-12-03T16:17:12.424Z,14.63
2022-12-03T16:18:34.535Z,13.20
2022-12-03T16:19:57.075Z,14.43
2022-12-03T16:21:23.537Z,14.00
2022-12-03T16:22:48.756Z,13.73
2022-12-03T16:24:10.939Z,13.90
2022-12-03T16:25:33.000Z,15.67
2022-12-03T16:26:55.089Z,14.13
2022-12-03T16:28:17.248Z,15.13
2022-12-03T16:29:39.320Z,14.23
2022-12-03T16:31:01.551Z,14.27
2022-12-03T16:32:23.884Z,15.17
2022-12-03T16:33:45.914Z,15.17
2022-12-03T16:35:08.262Z,15.67
2022-12-03T16:36:30.540Z,14.40
2022-12-03T16:37:52.619Z,14.43
2022-12-03T16:39:14.630Z,15.87
2022-12-03T16:40:36.700Z,15.67
2022-12-03T16:41:58.784Z,15.47
2022-12-03T16:43:20.894Z,14.87
2022-12-03T16:45:01.998Z,14.87
2022-12-03T16:46:27.122Z,13.60
2022-12-03T16:47:50.004Z,15.10
2022-12-03T16:49:12.330Z,14.90
2022-12-03T16:50:37.543Z,14.20
2022-12-03T16:51:59.613Z,15.03
2022-12-03T16:53:21.661Z,14.83
2022-12-03T16:54:43.790Z,14.03
2022-12-03T16:56:05.991Z,16.13
2022-12-03T16:57:33.452Z,16.27
2022-12-03T16:58:56.045Z,15.70
2022-12-03T17:00:18.383Z,13.50
2022-12-03T17:01:40.538Z,14.40
2022-12-03T17:03:02.727Z,14.07
2022-12-03T17:04:24.812Z,14.73
2022-12-03T17:05:47.149Z,15.88
2022-12-03T17:07:09.283Z,16.13
2022-12-03T17:08:31.622Z,15.63
2022-12-03T17:09:53.929Z,14.77
2022-12-03T17:11:16.398Z,14.93
2022-12-03T17:13:07.843Z,14.60
2022-12-03T17:14:21.273Z,14.20
2022-12-03T17:15:43.381Z,15.20
2022-12-03T17:17:05.486Z,14.20
2022-12-03T17:18:28.472Z,14.60
2022-12-03T17:19:50.679Z,15.63
2022-12-03T17:21:12.886Z,14.90
2022-12-03T17:22:34.917Z,13.40
2022-12-03T17:23:57.011Z,13.70
2022-12-03T17:25:19.012Z,14.10
2022-12-03T17:26:42.028Z,13.83
2022-12-03T17:28:04.086Z,13.77
2022-12-03T17:29:26.153Z,15.13
2022-12-03T17:30:48.311Z,16.17
2022-12-03T17:32:10.534Z,14.90
2022-12-03T17:33:32.691Z,14.93
2022-12-03T17:34:54.742Z,15.03
2022-12-03T17:36:16.816Z,15.10
2022-12-03T17:37:38.878Z,15.07
2022-12-03T17:39:01.273Z,15.70
2022-12-03T17:40:23.422Z,15.63
2022-12-03T17:41:45.440Z,15.90
2022-12-03T17:43:07.566Z,15.87
2022-12-03T17:44:29.628Z,14.10
2022-12-03T17:45:51.657Z,15.30
2022-12-03T17:47:13.719Z,16.93
2022-12-03T17:48:35.988Z,15.40
2022-12-03T17:49:58.123Z,14.30
2022-12-03T17:51:21.078Z,15.47
2022-12-03T17:52:43.106Z,15.83
2022-12-03T17:54:05.232Z,15.80
2022-12-03T17:55:36.157Z,15.20
2022-12-03T17:57:03.105Z,16.10
2022-12-03T17:58:26.652Z,15.37
2022-12-03T17:59:48.691Z,15.63
2022-12-03T18:01:10.737Z,16.53
2022-12-03T18:02:32.770Z,16.83
2022-12-03T18:03:54.909Z,15.47
2022-12-03T18:05:16.964Z,16.13
2022-12-03T18:06:39.359Z,15.07
2022-12-03T18:08:01.431Z,15.93
2022-12-03T18:09:23.520Z,14.43
2022-12-03T18:10:45.582Z,15.77
2022-12-03T18:12:07.766Z,15.53